sensor_id;sensor_type;location;lat;lon;timestamp;P1;durP1;ratioP1;P2;durP2;ratioP2
32297;SDS011;18782;48.984;8.548;2023-01-19T00:01:30;9.57;;;5.53;;
32297;SDS011;18782;48.984;8.548;2023-01-19T00:03:58;9.85;;;5.18;;
32297;SDS011;18782;48.984;8.548;2023-01-19T00:06:26;10.30;;;5.25;;
32297;SDS011;18782;48.984;8.548;2023-01-19T00:08:53;9.48;;;5.15;;
32297;SDS011;18782;48.984;8.548;2023-01-19T00:11:21;11.07;;;5.75;;
32297;SDS011;18782;48.984;8.548;2023-01-19T00:13:49;10.20;;;5.00;;
32297;SDS011;18782;48.984;8.548;2023-01-19T00:16:18;11.00;;;5.35;;
32297;SDS011;18782;48.984;8.548;2023-01-19T00:18:49;10.82;;;5.75;;
32297;SDS011;18782;48.984;8.548;2023-01-19T00:21:20;8.55;;;4.78;;
32297;SDS011;18782;48.984;8.548;2023-01-19T00:23:48;10.30;;;5.22;;
32297;SDS011;18782;48.984;8.548;2023-01-19T00:26:18;8.93;;;5.00;;
32297;SDS011;18782;48.984;8.548;2023-01-19T00:28:47;10.52;;;5.30;;
32297;SDS011;18782;48.984;8.548;2023-01-19T00:31:15;8.80;;;4.80;;
32297;SDS011;18782;48.984;8.548;2023-01-19T00:33:47;9.23;;;4.65;;
32297;SDS011;18782;48.984;8.548;2023-01-19T00:36:16;11.52;;;5.60;;
32297;SDS011;18782;48.984;8.548;2023-01-19T00:38:44;10.32;;;5.57;;
32297;SDS011;18782;48.984;8.548;2023-01-19T00:41:12;11.77;;;5.00;;
32297;SDS011;18782;48.984;8.548;2023-01-19T00:43:39;12.43;;;6.18;;
32297;SDS011;18782;48.984;8.548;2023-01-19T00:46:06;11.90;;;5.65;;
32297;SDS011;18782;48.984;8.548;2023-01-19T00:48:34;10.80;;;6.15;;
32297;SDS011;18782;48.984;8.548;2023-01-19T00:51:03;14.05;;;6.38;;
32297;SDS011;18782;48.984;8.548;2023-01-19T00:53:31;11.85;;;6.47;;
32297;SDS011;18782;48.984;8.548;2023-01-19T00:55:58;15.07;;;6.93;;
32297;SDS011;18782;48.984;8.548;2023-01-19T00:58:26;14.63;;;7.05;;
32297;SDS011;18782;48.984;8.548;2023-01-19T01:00:53;15.48;;;7.95;;
32297;SDS011;18782;48.984;8.548;2023-01-19T01:03:23;12.05;;;6.75;;
32297;SDS011;18782;48.984;8.548;2023-01-19T01:05:53;13.52;;;6.53;;
32297;SDS011;18782;48.984;8.548;2023-01-19T01:08:22;11.38;;;6.18;;
32297;SDS011;18782;48.984;8.548;2023-01-19T01:10:50;13.77;;;6.35;;
32297;SDS011;18782;48.984;8.548;2023-01-19T01:13:18;16.13;;;7.72;;
32297;SDS011;18782;48.984;8.548;2023-01-19T01:15:50;14.88;;;6.32;;
32297;SDS011;18782;48.984;8.548;2023-01-19T01:18:19;10.13;;;5.78;;
32297;SDS011;18782;48.984;8.548;2023-01-19T01:20:47;10.95;;;6.55;;
32297;SDS011;18782;48.984;8.548;2023-01-19T01:23:15;10.23;;;5.55;;
32297;SDS011;18782;48.984;8.548;2023-01-19T01:25:49;12.43;;;6.43;;
32297;SDS011;18782;48.984;8.548;2023-01-19T01:28:17;11.00;;;6.28;;
32297;SDS011;18782;48.984;8.548;2023-01-19T01:30:45;14.68;;;6.07;;
32297;SDS011;18782;48.984;8.548;2023-01-19T01:33:12;13.85;;;6.97;;
32297;SDS011;18782;48.984;8.548;2023-01-19T01:36:00;12.07;;;6.25;;
32297;SDS011;18782;48.984;8.548;2023-01-19T01:38:28;11.90;;;6.45;;
32297;SDS011;18782;48.984;8.548;2023-01-19T01:40:56;10.77;;;6.07;;
32297;SDS011;18782;48.984;8.548;2023-01-19T01:43:39;12.63;;;5.97;;
32297;SDS011;18782;48.984;8.548;2023-01-19T01:46:08;14.30;;;6.80;;
32297;SDS011;18782;48.984;8.548;2023-01-19T01:48:36;11.88;;;6.50;;
32297;SDS011;18782;48.984;8.548;2023-01-19T01:51:06;13.63;;;6.32;;
32297;SDS011;18782;48.984;8.548;2023-01-19T01:56:45;14.07;;;6.10;;
32297;SDS011;18782;48.984;8.548;2023-01-19T01:59:15;10.55;;;5.22;;
32297;SDS011;18782;48.984;8.548;2023-01-19T02:01:51;13.00;;;6.35;;
32297;SDS011;18782;48.984;8.548;2023-01-19T02:04:38;10.27;;;5.57;;
32297;SDS011;18782;48.984;8.548;2023-01-19T02:07:06;9.77;;;5.40;;
32297;SDS011;18782;48.984;8.548;2023-01-19T02:09:51;12.10;;;5.78;;
32297;SDS011;18782;48.984;8.548;2023-01-19T02:12:38;11.43;;;5.53;;
32297;SDS011;18782;48.984;8.548;2023-01-19T02:15:24;10.57;;;5.55;;
32297;SDS011;18782;48.984;8.548;2023-01-19T02:17:52;9.77;;;5.68;;
32297;SDS011;18782;48.984;8.548;2023-01-19T02:20:19;11.65;;;5.50;;
32297;SDS011;18782;48.984;8.548;2023-01-19T02:22:50;12.63;;;6.00;;
32297;SDS011;18782;48.984;8.548;2023-01-19T02:25:20;11.15;;;5.60;;
32297;SDS011;18782;48.984;8.548;2023-01-19T02:27:48;11.23;;;5.88;;
32297;SDS011;18782;48.984;8.548;2023-01-19T02:30:16;10.98;;;5.45;;
32297;SDS011;18782;48.984;8.548;2023-01-19T02:32:44;10.88;;;5.70;;
32297;SDS011;18782;48.984;8.548;2023-01-19T02:35:12;10.90;;;4.90;;
32297;SDS011;18782;48.984;8.548;2023-01-19T02:37:39;9.85;;;5.68;;
32297;SDS011;18782;48.984;8.548;2023-01-19T02:40:09;11.43;;;5.65;;
32297;SDS011;18782;48.984;8.548;2023-01-19T02:42:42;9.98;;;5.40;;
32297;SDS011;18782;48.984;8.548;2023-01-19T02:45:12;14.20;;;6.43;;
32297;SDS011;18782;48.984;8.548;2023-01-19T02:47:42;8.98;;;5.20;;
32297;SDS011;18782;48.984;8.548;2023-01-19T02:50:34;9.50;;;5.53;;
32297;SDS011;18782;48.984;8.548;2023-01-19T02:53:14;10.48;;;6.32;;
32297;SDS011;18782;48.984;8.548;2023-01-19T02:55:57;11.55;;;5.95;;
32297;SDS011;18782;48.984;8.548;2023-01-19T02:58:35;11.32;;;6.28;;
32297;SDS011;18782;48.984;8.548;2023-01-19T03:01:14;13.93;;;6.50;;
32297;SDS011;18782;48.984;8.548;2023-01-19T03:03:49;11.40;;;6.20;;
32297;SDS011;18782;48.984;8.548;2023-01-19T03:06:25;15.82;;;7.97;;
32297;SDS011;18782;48.984;8.548;2023-01-19T03:09:00;13.07;;;6.60;;
32297;SDS011;18782;48.984;8.548;2023-01-19T03:11:32;10.15;;;5.35;;
32297;SDS011;18782;48.984;8.548;2023-01-19T03:14:07;10.85;;;5.47;;
32297;SDS011;18782;48.984;8.548;2023-01-19T03:16:40;9.23;;;5.78;;
32297;SDS011;18782;48.984;8.548;2023-01-19T03:19:14;9.13;;;5.38;;
32297;SDS011;18782;48.984;8.548;2023-01-19T03:21:45;11.80;;;6.15;;
32297;SDS011;18782;48.984;8.548;2023-01-19T03:24:16;11.98;;;5.93;;
32297;SDS011;18782;48.984;8.548;2023-01-19T03:26:48;11.75;;;5.20;;
32297;SDS011;18782;48.984;8.548;2023-01-19T03:29:23;10.68;;;5.00;;
32297;SDS011;18782;48.984;8.548;2023-01-19T03:31:54;10.00;;;5.68;;
32297;SDS011;18782;48.984;8.548;2023-01-19T03:34:26;10.77;;;5.38;;
32297;SDS011;18782;48.984;8.548;2023-01-19T03:36:56;10.10;;;5.35;;
32297;SDS011;18782;48.984;8.548;2023-01-19T03:39:26;7.88;;;5.05;;
32297;SDS011;18782;48.984;8.548;2023-01-19T03:41:56;8.52;;;4.97;;
32297;SDS011;18782;48.984;8.548;2023-01-19T03:44:28;10.10;;;5.85;;
32297;SDS011;18782;48.984;8.548;2023-01-19T03:46:58;8.48;;;5.28;;
32297;SDS011;18782;48.984;8.548;2023-01-19T03:49:26;12.18;;;6.20;;
32297;SDS011;18782;48.984;8.548;2023-01-19T03:51:57;12.15;;;5.45;;
32297;SDS011;18782;48.984;8.548;2023-01-19T03:54:25;9.50;;;5.72;;
32297;SDS011;18782;48.984;8.548;2023-01-19T03:56:53;10.43;;;5.60;;
32297;SDS011;18782;48.984;8.548;2023-01-19T03:59:20;10.57;;;5.50;;
32297;SDS011;18782;48.984;8.548;2023-01-19T04:01:49;9.68;;;5.53;;
32297;SDS011;18782;48.984;8.548;2023-01-19T04:04:17;10.52;;;5.38;;
32297;SDS011;18782;48.984;8.548;2023-01-19T04:06:45;12.57;;;6.28;;
32297;SDS011;18782;48.984;8.548;2023-01-19T04:09:12;12.48;;;5.25;;
32297;SDS011;18782;48.984;8.548;2023-01-19T04:11:40;10.05;;;5.63;;
32297;SDS011;18782;48.984;8.548;2023-01-19T04:14:07;9.90;;;5.65;;
32297;SDS011;18782;48.984;8.548;2023-01-19T04:16:35;9.98;;;5.38;;
32297;SDS011;18782;48.984;8.548;2023-01-19T04:19:04;7.93;;;5.25;;
32297;SDS011;18782;48.984;8.548;2023-01-19T04:21:31;10.82;;;5.80;;
32297;SDS011;18782;48.984;8.548;2023-01-19T04:23:59;10.07;;;5.30;;
32297;SDS011;18782;48.984;8.548;2023-01-19T04:26:27;9.57;;;5.60;;
32297;SDS011;18782;48.984;8.548;2023-01-19T04:28:54;8.95;;;5.10;;
32297;SDS011;18782;48.984;8.548;2023-01-19T04:31:22;8.88;;;5.13;;
32297;SDS011;18782;48.984;8.548;2023-01-19T04:33:50;9.88;;;5.07;;
32297;SDS011;18782;48.984;8.548;2023-01-19T04:36:19;8.32;;;4.82;;
32297;SDS011;18782;48.984;8.548;2023-01-19T04:38:46;8.48;;;5.05;;
32297;SDS011;18782;48.984;8.548;2023-01-19T04:41:14;9.45;;;5.40;;
32297;SDS011;18782;48.984;8.548;2023-01-19T04:43:41;11.05;;;5.13;;
32297;SDS011;18782;48.984;8.548;2023-01-19T04:46:09;12.95;;;6.07;;
32297;SDS011;18782;48.984;8.548;2023-01-19T04:48:36;11.73;;;5.30;;
32297;SDS011;18782;48.984;8.548;2023-01-19T04:51:07;10.52;;;5.60;;
32297;SDS011;18782;48.984;8.548;2023-01-19T04:53:36;12.07;;;5.57;;
32297;SDS011;18782;48.984;8.548;2023-01-19T04:56:04;9.20;;;5.22;;
32297;SDS011;18782;48.984;8.548;2023-01-19T04:58:32;10.25;;;5.78;;
32297;SDS011;18782;48.984;8.548;2023-01-19T05:00:59;9.75;;;5.47;;
32297;SDS011;18782;48.984;8.548;2023-01-19T05:03:27;7.55;;;4.95;;
32297;SDS011;18782;48.984;8.548;2023-01-19T05:05:54;9.57;;;5.00;;
32297;SDS011;18782;48.984;8.548;2023-01-19T05:08:22;6.90;;;4.80;;
32297;SDS011;18782;48.984;8.548;2023-01-19T05:10:51;8.32;;;4.78;;
32297;SDS011;18782;48.984;8.548;2023-01-19T05:13:19;8.77;;;4.82;;
32297;SDS011;18782;48.984;8.548;2023-01-19T05:15:46;9.65;;;5.18;;
32297;SDS011;18782;48.984;8.548;2023-01-19T05:18:15;11.27;;;5.20;;
32297;SDS011;18782;48.984;8.548;2023-01-19T05:20:44;7.88;;;4.80;;
32297;SDS011;18782;48.984;8.548;2023-01-19T05:23:12;12.65;;;5.85;;
32297;SDS011;18782;48.984;8.548;2023-01-19T05:25:40;9.95;;;4.47;;
32297;SDS011;18782;48.984;8.548;2023-01-19T05:28:10;10.23;;;5.72;;
32297;SDS011;18782;48.984;8.548;2023-01-19T05:30:37;8.23;;;4.88;;
32297;SDS011;18782;48.984;8.548;2023-01-19T05:33:05;7.78;;;4.40;;
32297;SDS011;18782;48.984;8.548;2023-01-19T05:35:33;10.32;;;4.70;;
32297;SDS011;18782;48.984;8.548;2023-01-19T05:38:01;8.27;;;4.57;;
32297;SDS011;18782;48.984;8.548;2023-01-19T05:40:29;8.82;;;4.90;;
32297;SDS011;18782;48.984;8.548;2023-01-19T05:42:57;9.38;;;5.22;;
32297;SDS011;18782;48.984;8.548;2023-01-19T05:45:27;9.32;;;4.80;;
32297;SDS011;18782;48.984;8.548;2023-01-19T05:47:55;7.80;;;4.80;;
32297;SDS011;18782;48.984;8.548;2023-01-19T05:50:23;8.55;;;4.45;;
32297;SDS011;18782;48.984;8.548;2023-01-19T05:52:51;10.77;;;4.53;;
32297;SDS011;18782;48.984;8.548;2023-01-19T05:55:19;8.15;;;4.32;;
32297;SDS011;18782;48.984;8.548;2023-01-19T05:57:47;8.68;;;4.38;;
32297;SDS011;18782;48.984;8.548;2023-01-19T06:00:15;7.20;;;4.60;;
32297;SDS011;18782;48.984;8.548;2023-01-19T06:02:44;10.15;;;5.03;;
32297;SDS011;18782;48.984;8.548;2023-01-19T06:05:14;10.80;;;5.22;;
32297;SDS011;18782;48.984;8.548;2023-01-19T06:07:42;10.27;;;5.03;;
32297;SDS011;18782;48.984;8.548;2023-01-19T06:10:09;10.27;;;4.53;;
32297;SDS011;18782;48.984;8.548;2023-01-19T06:12:38;9.80;;;4.80;;
32297;SDS011;18782;48.984;8.548;2023-01-19T06:15:07;9.55;;;4.85;;
32297;SDS011;18782;48.984;8.548;2023-01-19T06:17:35;9.00;;;5.30;;
32297;SDS011;18782;48.984;8.548;2023-01-19T06:20:05;9.18;;;5.93;;
32297;SDS011;18782;48.984;8.548;2023-01-19T06:22:33;9.45;;;5.65;;
32297;SDS011;18782;48.984;8.548;2023-01-19T06:25:00;14.95;;;7.85;;
32297;SDS011;18782;48.984;8.548;2023-01-19T06:27:28;14.82;;;7.88;;
32297;SDS011;18782;48.984;8.548;2023-01-19T06:29:55;11.68;;;6.13;;
32297;SDS011;18782;48.984;8.548;2023-01-19T06:32:23;10.85;;;5.45;;
32297;SDS011;18782;48.984;8.548;2023-01-19T06:34:51;10.10;;;5.30;;
32297;SDS011;18782;48.984;8.548;2023-01-19T06:37:20;9.75;;;5.22;;
32297;SDS011;18782;48.984;8.548;2023-01-19T06:39:50;10.63;;;6.18;;
32297;SDS011;18782;48.984;8.548;2023-01-19T06:42:17;8.63;;;5.00;;
32297;SDS011;18782;48.984;8.548;2023-01-19T06:44:45;8.82;;;5.35;;
32297;SDS011;18782;48.984;8.548;2023-01-19T06:47:13;11.07;;;5.75;;
32297;SDS011;18782;48.984;8.548;2023-01-19T06:49:42;9.63;;;5.45;;
32297;SDS011;18782;48.984;8.548;2023-01-19T06:52:10;11.15;;;5.43;;
32297;SDS011;18782;48.984;8.548;2023-01-19T06:54:42;8.50;;;5.03;;
32297;SDS011;18782;48.984;8.548;2023-01-19T06:57:10;10.93;;;5.00;;
32297;SDS011;18782;48.984;8.548;2023-01-19T06:59:39;11.48;;;5.47;;
32297;SDS011;18782;48.984;8.548;2023-01-19T07:02:08;10.07;;;5.65;;
32297;SDS011;18782;48.984;8.548;2023-01-19T07:04:52;9.95;;;5.60;;
32297;SDS011;18782;48.984;8.548;2023-01-19T07:07:19;11.10;;;5.70;;
32297;SDS011;18782;48.984;8.548;2023-01-19T07:09:48;11.35;;;4.88;;
32297;SDS011;18782;48.984;8.548;2023-01-19T07:12:19;7.95;;;4.82;;
32297;SDS011;18782;48.984;8.548;2023-01-19T07:14:47;11.80;;;6.07;;
32297;SDS011;18782;48.984;8.548;2023-01-19T07:17:14;13.48;;;7.35;;
32297;SDS011;18782;48.984;8.548;2023-01-19T07:19:42;14.32;;;7.43;;
32297;SDS011;18782;48.984;8.548;2023-01-19T07:22:10;11.02;;;5.60;;
32297;SDS011;18782;48.984;8.548;2023-01-19T07:24:37;10.55;;;4.65;;
32297;SDS011;18782;48.984;8.548;2023-01-19T07:27:07;9.10;;;5.10;;
32297;SDS011;18782;48.984;8.548;2023-01-19T07:29:36;9.45;;;4.72;;
32297;SDS011;18782;48.984;8.548;2023-01-19T07:32:04;9.25;;;5.00;;
32297;SDS011;18782;48.984;8.548;2023-01-19T07:34:32;15.38;;;5.80;;
32297;SDS011;18782;48.984;8.548;2023-01-19T07:37:01;10.00;;;5.00;;
32297;SDS011;18782;48.984;8.548;2023-01-19T07:39:29;10.00;;;5.57;;
32297;SDS011;18782;48.984;8.548;2023-01-19T07:41:57;45.33;;;18.40;;
32297;SDS011;18782;48.984;8.548;2023-01-19T07:44:26;9.20;;;5.30;;
32297;SDS011;18782;48.984;8.548;2023-01-19T07:46:53;9.73;;;5.50;;
32297;SDS011;18782;48.984;8.548;2023-01-19T07:49:21;13.23;;;6.15;;
32297;SDS011;18782;48.984;8.548;2023-01-19T07:51:57;46.22;;;19.27;;
32297;SDS011;18782;48.984;8.548;2023-01-19T07:54:25;39.65;;;17.35;;
32297;SDS011;18782;48.984;8.548;2023-01-19T07:56:52;43.13;;;18.83;;
32297;SDS011;18782;48.984;8.548;2023-01-19T07:59:20;41.45;;;17.73;;
32297;SDS011;18782;48.984;8.548;2023-01-19T08:01:49;19.13;;;9.88;;
32297;SDS011;18782;48.984;8.548;2023-01-19T08:04:19;15.60;;;8.45;;
32297;SDS011;18782;48.984;8.548;2023-01-19T08:06:47;9.63;;;5.18;;
32297;SDS011;18782;48.984;8.548;2023-01-19T08:09:14;9.18;;;5.20;;
32297;SDS011;18782;48.984;8.548;2023-01-19T08:11:43;22.20;;;9.65;;
32297;SDS011;18782;48.984;8.548;2023-01-19T08:14:10;8.30;;;5.28;;
32297;SDS011;18782;48.984;8.548;2023-01-19T08:16:38;12.35;;;5.93;;
32297;SDS011;18782;48.984;8.548;2023-01-19T08:19:07;11.02;;;5.18;;
32297;SDS011;18782;48.984;8.548;2023-01-19T08:21:34;17.95;;;9.85;;
32297;SDS011;18782;48.984;8.548;2023-01-19T08:24:04;30.25;;;13.85;;
32297;SDS011;18782;48.984;8.548;2023-01-19T08:26:32;28.45;;;12.25;;
32297;SDS011;18782;48.984;8.548;2023-01-19T08:29:02;9.40;;;5.28;;
32297;SDS011;18782;48.984;8.548;2023-01-19T08:31:31;8.93;;;4.47;;
32297;SDS011;18782;48.984;8.548;2023-01-19T08:33:59;8.98;;;4.72;;
32297;SDS011;18782;48.984;8.548;2023-01-19T08:36:28;9.05;;;4.50;;
32297;SDS011;18782;48.984;8.548;2023-01-19T08:38:56;9.25;;;5.18;;
32297;SDS011;18782;48.984;8.548;2023-01-19T08:41:23;8.93;;;4.90;;
32297;SDS011;18782;48.984;8.548;2023-01-19T08:43:51;9.80;;;4.80;;
32297;SDS011;18782;48.984;8.548;2023-01-19T08:46:18;9.77;;;4.82;;
32297;SDS011;18782;48.984;8.548;2023-01-19T08:48:47;8.25;;;4.97;;
32297;SDS011;18782;48.984;8.548;2023-01-19T08:51:15;13.52;;;4.65;;
32297;SDS011;18782;48.984;8.548;2023-01-19T08:53:44;9.52;;;5.15;;
32297;SDS011;18782;48.984;8.548;2023-01-19T08:56:12;9.98;;;5.03;;
32297;SDS011;18782;48.984;8.548;2023-01-19T08:58:40;9.70;;;5.35;;
32297;SDS011;18782;48.984;8.548;2023-01-19T09:01:09;10.65;;;5.18;;
32297;SDS011;18782;48.984;8.548;2023-01-19T09:03:39;9.07;;;4.50;;
32297;SDS011;18782;48.984;8.548;2023-01-19T09:06:07;10.07;;;5.25;;
32297;SDS011;18782;48.984;8.548;2023-01-19T09:08:36;7.40;;;4.63;;
32297;SDS011;18782;48.984;8.548;2023-01-19T09:11:07;6.82;;;3.88;;
32297;SDS011;18782;48.984;8.548;2023-01-19T09:16:05;5.75;;;3.70;;
32297;SDS011;18782;48.984;8.548;2023-01-19T09:18:34;6.75;;;4.53;;
32297;SDS011;18782;48.984;8.548;2023-01-19T09:21:02;9.43;;;3.90;;
32297;SDS011;18782;48.984;8.548;2023-01-19T09:23:30;8.05;;;3.72;;
32297;SDS011;18782;48.984;8.548;2023-01-19T09:25:58;9.13;;;5.03;;
32297;SDS011;18782;48.984;8.548;2023-01-19T09:28:28;6.20;;;3.67;;
32297;SDS011;18782;48.984;8.548;2023-01-19T09:30:56;4.97;;;3.10;;
32297;SDS011;18782;48.984;8.548;2023-01-19T09:33:23;7.68;;;3.15;;
32297;SDS011;18782;48.984;8.548;2023-01-19T09:35:51;4.78;;;3.30;;
32297;SDS011;18782;48.984;8.548;2023-01-19T09:38:19;13.98;;;6.25;;
32297;SDS011;18782;48.984;8.548;2023-01-19T09:40:49;9.75;;;5.53;;
32297;SDS011;18782;48.984;8.548;2023-01-19T09:43:22;10.30;;;5.88;;
32297;SDS011;18782;48.984;8.548;2023-01-19T09:46:00;8.13;;;3.42;;
32297;SDS011;18782;48.984;8.548;2023-01-19T09:48:34;6.32;;;3.40;;
32297;SDS011;18782;48.984;8.548;2023-01-19T09:51:12;5.07;;;3.08;;
32297;SDS011;18782;48.984;8.548;2023-01-19T09:53:46;6.93;;;3.45;;
32297;SDS011;18782;48.984;8.548;2023-01-19T09:56:18;4.68;;;2.67;;
32297;SDS011;18782;48.984;8.548;2023-01-19T09:58:48;3.70;;;2.55;;
32297;SDS011;18782;48.984;8.548;2023-01-19T10:01:23;5.60;;;2.80;;
32297;SDS011;18782;48.984;8.548;2023-01-19T10:06:46;4.35;;;2.60;;
32297;SDS011;18782;48.984;8.548;2023-01-19T10:09:16;6.10;;;2.30;;
32297;SDS011;18782;48.984;8.548;2023-01-19T10:11:50;7.63;;;3.25;;
32297;SDS011;18782;48.984;8.548;2023-01-19T10:16:58;5.28;;;2.50;;
32297;SDS011;18782;48.984;8.548;2023-01-19T10:19:33;3.78;;;2.65;;
32297;SDS011;18782;48.984;8.548;2023-01-19T10:22:07;4.82;;;2.30;;
32297;SDS011;18782;48.984;8.548;2023-01-19T10:24:46;6.78;;;3.00;;
32297;SDS011;18782;48.984;8.548;2023-01-19T10:27:18;5.63;;;2.80;;
32297;SDS011;18782;48.984;8.548;2023-01-19T10:29:51;7.17;;;2.80;;
32297;SDS011;18782;48.984;8.548;2023-01-19T10:32:19;8.10;;;3.15;;
32297;SDS011;18782;48.984;8.548;2023-01-19T10:34:49;5.63;;;3.20;;
32297;SDS011;18782;48.984;8.548;2023-01-19T10:37:21;8.65;;;3.42;;
32297;SDS011;18782;48.984;8.548;2023-01-19T10:39:56;6.88;;;3.05;;
32297;SDS011;18782;48.984;8.548;2023-01-19T10:42:28;6.55;;;3.33;;
32297;SDS011;18782;48.984;8.548;2023-01-19T10:44:58;6.43;;;3.85;;
32297;SDS011;18782;48.984;8.548;2023-01-19T10:47:29;7.57;;;3.90;;
32297;SDS011;18782;48.984;8.548;2023-01-19T10:50:03;6.75;;;4.15;;
32297;SDS011;18782;48.984;8.548;2023-01-19T10:52:48;9.80;;;3.95;;
32297;SDS011;18782;48.984;8.548;2023-01-19T10:55:24;7.78;;;3.95;;
32297;SDS011;18782;48.984;8.548;2023-01-19T10:57:54;6.78;;;4.18;;
32297;SDS011;18782;48.984;8.548;2023-01-19T11:00:35;7.53;;;3.70;;
32297;SDS011;18782;48.984;8.548;2023-01-19T11:03:04;6.47;;;3.67;;
32297;SDS011;18782;48.984;8.548;2023-01-19T11:05:48;7.78;;;4.18;;
32297;SDS011;18782;48.984;8.548;2023-01-19T11:08:22;6.30;;;4.10;;
32297;SDS011;18782;48.984;8.548;2023-01-19T11:10:56;7.35;;;4.40;;
32297;SDS011;18782;48.984;8.548;2023-01-19T11:13:29;6.50;;;4.30;;
32297;SDS011;18782;48.984;8.548;2023-01-19T11:16:02;6.78;;;4.53;;
32297;SDS011;18782;48.984;8.548;2023-01-19T11:18:32;7.22;;;4.07;;
32297;SDS011;18782;48.984;8.548;2023-01-19T11:21:03;8.68;;;4.93;;
32297;SDS011;18782;48.984;8.548;2023-01-19T11:23:34;7.47;;;4.75;;
32297;SDS011;18782;48.984;8.548;2023-01-19T11:26:08;6.57;;;4.10;;
32297;SDS011;18782;48.984;8.548;2023-01-19T11:28:42;7.78;;;4.35;;
32297;SDS011;18782;48.984;8.548;2023-01-19T11:31:18;6.07;;;4.18;;
32297;SDS011;18782;48.984;8.548;2023-01-19T11:33:59;9.63;;;4.25;;
32297;SDS011;18782;48.984;8.548;2023-01-19T11:36:28;7.10;;;4.30;;
32297;SDS011;18782;48.984;8.548;2023-01-19T11:38:58;6.03;;;3.70;;
32297;SDS011;18782;48.984;8.548;2023-01-19T11:41:29;9.25;;;4.28;;
32297;SDS011;18782;48.984;8.548;2023-01-19T11:44:01;6.57;;;3.80;;
32297;SDS011;18782;48.984;8.548;2023-01-19T11:46:40;7.53;;;4.10;;
32297;SDS011;18782;48.984;8.548;2023-01-19T11:49:11;4.13;;;2.63;;
32297;SDS011;18782;48.984;8.548;2023-01-19T11:51:48;24.00;;;12.57;;
32297;SDS011;18782;48.984;8.548;2023-01-19T11:54:24;8.80;;;5.57;;
32297;SDS011;18782;48.984;8.548;2023-01-19T11:56:55;9.60;;;5.20;;
32297;SDS011;18782;48.984;8.548;2023-01-19T11:59:27;8.50;;;4.63;;
32297;SDS011;18782;48.984;8.548;2023-01-19T12:01:56;6.68;;;4.13;;
32297;SDS011;18782;48.984;8.548;2023-01-19T12:04:27;7.72;;;4.38;;
32297;SDS011;18782;48.984;8.548;2023-01-19T12:06:58;6.28;;;4.32;;
32297;SDS011;18782;48.984;8.548;2023-01-19T12:09:32;8.73;;;3.92;;
32297;SDS011;18782;48.984;8.548;2023-01-19T12:12:09;8.50;;;4.72;;
32297;SDS011;18782;48.984;8.548;2023-01-19T12:14:46;9.23;;;4.30;;
32297;SDS011;18782;48.984;8.548;2023-01-19T12:17:23;8.35;;;4.53;;
32297;SDS011;18782;48.984;8.548;2023-01-19T12:19:53;8.60;;;4.95;;
32297;SDS011;18782;48.984;8.548;2023-01-19T12:22:27;9.88;;;5.07;;
32297;SDS011;18782;48.984;8.548;2023-01-19T12:24:56;11.77;;;5.75;;
32297;SDS011;18782;48.984;8.548;2023-01-19T12:27:38;9.82;;;4.88;;
32297;SDS011;18782;48.984;8.548;2023-01-19T12:30:08;11.27;;;6.00;;
32297;SDS011;18782;48.984;8.548;2023-01-19T12:32:44;10.63;;;5.57;;
32297;SDS011;18782;48.984;8.548;2023-01-19T12:38:21;8.45;;;4.53;;
32297;SDS011;18782;48.984;8.548;2023-01-19T12:41:14;8.55;;;4.75;;
32297;SDS011;18782;48.984;8.548;2023-01-19T12:43:44;7.85;;;4.50;;
32297;SDS011;18782;48.984;8.548;2023-01-19T12:46:18;9.00;;;4.47;;
32297;SDS011;18782;48.984;8.548;2023-01-19T12:48:54;7.53;;;3.88;;
32297;SDS011;18782;48.984;8.548;2023-01-19T12:51:32;8.13;;;4.70;;
32297;SDS011;18782;48.984;8.548;2023-01-19T12:54:00;7.40;;;4.50;;
32297;SDS011;18782;48.984;8.548;2023-01-19T12:56:33;15.10;;;8.77;;
32297;SDS011;18782;48.984;8.548;2023-01-19T12:59:03;10.68;;;5.18;;
32297;SDS011;18782;48.984;8.548;2023-01-19T13:01:31;7.72;;;3.95;;
32297;SDS011;18782;48.984;8.548;2023-01-19T13:04:01;10.13;;;4.80;;
32297;SDS011;18782;48.984;8.548;2023-01-19T13:09:36;6.40;;;4.10;;
32297;SDS011;18782;48.984;8.548;2023-01-19T13:12:21;7.72;;;4.35;;
32297;SDS011;18782;48.984;8.548;2023-01-19T13:14:53;7.47;;;4.72;;
32297;SDS011;18782;48.984;8.548;2023-01-19T13:17:54;9.10;;;4.80;;
32297;SDS011;18782;48.984;8.548;2023-01-19T13:20:26;9.85;;;4.32;;
32297;SDS011;18782;48.984;8.548;2023-01-19T13:23:14;8.70;;;4.38;;
32297;SDS011;18782;48.984;8.548;2023-01-19T13:25:46;6.85;;;4.63;;
32297;SDS011;18782;48.984;8.548;2023-01-19T13:28:17;7.45;;;4.45;;
32297;SDS011;18782;48.984;8.548;2023-01-19T13:30:52;6.57;;;4.30;;
32297;SDS011;18782;48.984;8.548;2023-01-19T13:33:23;6.85;;;4.25;;
32297;SDS011;18782;48.984;8.548;2023-01-19T13:35:55;9.50;;;4.55;;
32297;SDS011;18782;48.984;8.548;2023-01-19T13:38:25;8.57;;;4.90;;
32297;SDS011;18782;48.984;8.548;2023-01-19T13:40:54;7.55;;;4.50;;
32297;SDS011;18782;48.984;8.548;2023-01-19T13:43:26;7.55;;;4.65;;
32297;SDS011;18782;48.984;8.548;2023-01-19T13:45:57;8.27;;;4.70;;
32297;SDS011;18782;48.984;8.548;2023-01-19T13:48:26;8.93;;;4.50;;
32297;SDS011;18782;48.984;8.548;2023-01-19T13:50:59;10.27;;;5.07;;
32297;SDS011;18782;48.984;8.548;2023-01-19T13:53:29;7.35;;;4.70;;
32297;SDS011;18782;48.984;8.548;2023-01-19T13:56:16;10.38;;;5.47;;
32297;SDS011;18782;48.984;8.548;2023-01-19T13:59:00;7.10;;;4.93;;
32297;SDS011;18782;48.984;8.548;2023-01-19T14:01:35;7.93;;;4.80;;
32297;SDS011;18782;48.984;8.548;2023-01-19T14:04:04;8.38;;;4.72;;
32297;SDS011;18782;48.984;8.548;2023-01-19T14:06:35;7.97;;;4.78;;
32297;SDS011;18782;48.984;8.548;2023-01-19T14:09:15;8.60;;;4.32;;
32297;SDS011;18782;48.984;8.548;2023-01-19T14:11:45;8.55;;;4.55;;
32297;SDS011;18782;48.984;8.548;2023-01-19T14:14:24;8.43;;;4.55;;
32297;SDS011;18782;48.984;8.548;2023-01-19T14:16:52;8.60;;;5.53;;
32297;SDS011;18782;48.984;8.548;2023-01-19T14:19:20;8.35;;;4.72;;
32297;SDS011;18782;48.984;8.548;2023-01-19T14:21:57;10.23;;;6.68;;
32297;SDS011;18782;48.984;8.548;2023-01-19T14:24:27;7.88;;;4.50;;
32297;SDS011;18782;48.984;8.548;2023-01-19T14:27:09;8.82;;;4.80;;
32297;SDS011;18782;48.984;8.548;2023-01-19T14:29:45;12.95;;;8.02;;
32297;SDS011;18782;48.984;8.548;2023-01-19T14:32:16;6.82;;;4.22;;
32297;SDS011;18782;48.984;8.548;2023-01-19T14:34:46;5.90;;;4.00;;
32297;SDS011;18782;48.984;8.548;2023-01-19T14:37:19;5.85;;;4.07;;
32297;SDS011;18782;48.984;8.548;2023-01-19T14:39:48;8.20;;;4.68;;
32297;SDS011;18782;48.984;8.548;2023-01-19T14:42:19;6.35;;;4.28;;
32297;SDS011;18782;48.984;8.548;2023-01-19T14:44:50;7.55;;;5.18;;
32297;SDS011;18782;48.984;8.548;2023-01-19T14:47:21;6.25;;;4.70;;
32297;SDS011;18782;48.984;8.548;2023-01-19T14:49:55;10.98;;;7.97;;
32297;SDS011;18782;48.984;8.548;2023-01-19T14:52:28;7.15;;;4.10;;
32297;SDS011;18782;48.984;8.548;2023-01-19T14:54:59;12.77;;;7.32;;
32297;SDS011;18782;48.984;8.548;2023-01-19T14:57:29;8.63;;;5.55;;
32297;SDS011;18782;48.984;8.548;2023-01-19T14:59:56;7.63;;;4.70;;
32297;SDS011;18782;48.984;8.548;2023-01-19T15:02:24;8.85;;;5.38;;
32297;SDS011;18782;48.984;8.548;2023-01-19T15:04:52;6.47;;;3.95;;
32297;SDS011;18782;48.984;8.548;2023-01-19T15:07:21;7.85;;;3.80;;
32297;SDS011;18782;48.984;8.548;2023-01-19T15:09:52;6.00;;;3.20;;
32297;SDS011;18782;48.984;8.548;2023-01-19T15:12:20;7.43;;;4.20;;
32297;SDS011;18782;48.984;8.548;2023-01-19T15:14:51;7.72;;;4.00;;
32297;SDS011;18782;48.984;8.548;2023-01-19T15:17:18;5.95;;;3.95;;
32297;SDS011;18782;48.984;8.548;2023-01-19T15:19:54;9.63;;;4.72;;
32297;SDS011;18782;48.984;8.548;2023-01-19T15:22:24;7.78;;;4.18;;